sensor_id;sensor_type;location;lat;lon;timestamp;temperature;humidity
13673;DHT22;6909;52.202;9.876;2023-05-07T00:00:08;9.80;99.90
13673;DHT22;6909;52.202;9.876;2023-05-07T00:02:36;9.80;99.90
13673;DHT22;6909;52.202;9.876;2023-05-07T00:05:06;9.70;99.90
13673;DHT22;6909;52.202;9.876;2023-05-07T00:07:32;9.80;99.90
13673;DHT22;6909;52.202;9.876;2023-05-07T00:09:59;9.80;99.90
13673;DHT22;6909;52.202;9.876;2023-05-07T00:12:26;9.70;99.90
13673;DHT22;6909;52.202;9.876;2023-05-07T00:14:52;9.70;99.90
13673;DHT22;6909;52.202;9.876;2023-05-07T00:17:19;9.70;99.90
13673;DHT22;6909;52.202;9.876;2023-05-07T00:19:46;9.70;99.90
13673;DHT22;6909;52.202;9.876;2023-05-07T00:22:14;9.70;99.90
13673;DHT22;6909;52.202;9.876;2023-05-07T00:24:41;9.70;99.90
13673;DHT22;6909;52.202;9.876;2023-05-07T00:27:07;9.70;99.90
13673;DHT22;6909;52.202;9.876;2023-05-07T00:29:34;9.70;99.90
13673;DHT22;6909;52.202;9.876;2023-05-07T00:32:02;9.60;99.90
13673;DHT22;6909;52.202;9.876;2023-05-07T00:34:28;9.70;99.90
13673;DHT22;6909;52.202;9.876;2023-05-07T00:36:55;9.60;99.90
13673;DHT22;6909;52.202;9.876;2023-05-07T00:39:23;9.60;99.90
13673;DHT22;6909;52.202;9.876;2023-05-07T00:41:50;9.60;99.90
13673;DHT22;6909;52.202;9.876;2023-05-07T00:44:17;9.60;99.90
13673;DHT22;6909;52.202;9.876;2023-05-07T00:46:44;9.60;99.90
13673;DHT22;6909;52.202;9.876;2023-05-07T00:49:14;9.60;99.90
13673;DHT22;6909;52.202;9.876;2023-05-07T00:51:41;9.50;99.90
13673;DHT22;6909;52.202;9.876;2023-05-07T00:54:08;9.50;99.90
13673;DHT22;6909;52.202;9.876;2023-05-07T00:56:36;9.50;99.90
13673;DHT22;6909;52.202;9.876;2023-05-07T00:59:05;9.50;99.90
13673;DHT22;6909;52.202;9.876;2023-05-07T01:01:32;9.50;99.90
13673;DHT22;6909;52.202;9.876;2023-05-07T01:03:58;9.50;99.90
13673;DHT22;6909;52.202;9.876;2023-05-07T01:06:26;9.50;99.90
13673;DHT22;6909;52.202;9.876;2023-05-07T01:08:54;9.40;99.90
13673;DHT22;6909;52.202;9.876;2023-05-07T01:11:22;9.40;99.90
13673;DHT22;6909;52.202;9.876;2023-05-07T01:13:50;9.40;99.90
13673;DHT22;6909;52.202;9.876;2023-05-07T01:16:17;9.40;99.90
13673;DHT22;6909;52.202;9.876;2023-05-07T01:18:44;9.40;99.90
13673;DHT22;6909;52.202;9.876;2023-05-07T01:21:15;9.30;99.90
13673;DHT22;6909;52.202;9.876;2023-05-07T01:23:44;9.30;99.90
13673;DHT22;6909;52.202;9.876;2023-05-07T01:26:12;9.30;99.90
13673;DHT22;6909;52.202;9.876;2023-05-07T01:28:38;9.30;99.90
13673;DHT22;6909;52.202;9.876;2023-05-07T01:31:05;9.30;99.90
13673;DHT22;6909;52.202;9.876;2023-05-07T01:33:35;9.30;99.90
13673;DHT22;6909;52.202;9.876;2023-05-07T01:36:03;9.30;99.90
13673;DHT22;6909;52.202;9.876;2023-05-07T01:38:32;9.30;99.90
13673;DHT22;6909;52.202;9.876;2023-05-07T01:41:01;9.40;99.90
13673;DHT22;6909;52.202;9.876;2023-05-07T01:43:28;9.30;99.90
13673;DHT22;6909;52.202;9.876;2023-05-07T01:45:55;9.30;99.90
13673;DHT22;6909;52.202;9.876;2023-05-07T01:48:22;9.30;99.90
13673;DHT22;6909;52.202;9.876;2023-05-07T01:50:49;9.30;99.90
13673;DHT22;6909;52.202;9.876;2023-05-07T01:53:16;9.30;99.90
13673;DHT22;6909;52.202;9.876;2023-05-07T01:55:43;9.40;99.90
13673;DHT22;6909;52.202;9.876;2023-05-07T01:58:12;9.30;99.90
13673;DHT22;6909;52.202;9.876;2023-05-07T02:00:39;9.40;99.90
13673;DHT22;6909;52.202;9.876;2023-05-07T02:03:06;9.30;99.90
13673;DHT22;6909;52.202;9.876;2023-05-07T02:05:32;9.30;99.90
13673;DHT22;6909;52.202;9.876;2023-05-07T02:07:59;9.30;99.90
13673;DHT22;6909;52.202;9.876;2023-05-07T02:10:26;9.30;99.90
13673;DHT22;6909;52.202;9.876;2023-05-07T02:12:52;9.30;99.90
13673;DHT22;6909;52.202;9.876;2023-05-07T02:15:20;9.40;99.90
13673;DHT22;6909;52.202;9.876;2023-05-07T02:18:01;9.40;99.90
13673;DHT22;6909;52.202;9.876;2023-05-07T02:20:28;9.40;99.90
13673;DHT22;6909;52.202;9.876;2023-05-07T02:22:54;9.40;99.90
13673;DHT22;6909;52.202;9.876;2023-05-07T02:25:21;9.40;99.90
13673;DHT22;6909;52.202;9.876;2023-05-07T02:27:48;9.40;99.90
13673;DHT22;6909;52.202;9.876;2023-05-07T02:30:15;9.40;99.90
13673;DHT22;6909;52.202;9.876;2023-05-07T02:32:43;9.40;99.90
13673;DHT22;6909;52.202;9.876;2023-05-07T02:35:10;9.40;99.90
13673;DHT22;6909;52.202;9.876;2023-05-07T02:37:36;9.40;99.90
13673;DHT22;6909;52.202;9.876;2023-05-07T02:40:04;9.40;99.90
13673;DHT22;6909;52.202;9.876;2023-05-07T02:42:31;9.40;99.90
13673;DHT22;6909;52.202;9.876;2023-05-07T02:44:57;9.40;99.90
13673;DHT22;6909;52.202;9.876;2023-05-07T02:47:24;9.40;99.90
13673;DHT22;6909;52.202;9.876;2023-05-07T02:49:53;9.40;99.90
13673;DHT22;6909;52.202;9.876;2023-05-07T02:52:20;9.40;99.90
13673;DHT22;6909;52.202;9.876;2023-05-07T02:54:47;9.40;99.90
13673;DHT22;6909;52.202;9.876;2023-05-07T02:57:13;9.40;99.90
13673;DHT22;6909;52.202;9.876;2023-05-07T02:59:40;9.40;99.90
13673;DHT22;6909;52.202;9.876;2023-05-07T03:02:06;9.40;99.90
13673;DHT22;6909;52.202;9.876;2023-05-07T03:04:33;9.40;99.90
13673;DHT22;6909;52.202;9.876;2023-05-07T03:07:01;9.40;99.90
13673;DHT22;6909;52.202;9.876;2023-05-07T03:09:28;9.40;99.90
13673;DHT22;6909;52.202;9.876;2023-05-07T03:11:54;9.40;99.90
13673;DHT22;6909;52.202;9.876;2023-05-07T03:14:21;9.40;99.90
13673;DHT22;6909;52.202;9.876;2023-05-07T03:16:48;9.40;99.90
13673;DHT22;6909;52.202;9.876;2023-05-07T03:19:15;9.30;99.90
13673;DHT22;6909;52.202;9.876;2023-05-07T03:21:41;9.30;99.90
13673;DHT22;6909;52.202;9.876;2023-05-07T03:24:09;9.30;99.90
13673;DHT22;6909;52.202;9.876;2023-05-07T03:26:36;9.30;99.90
13673;DHT22;6909;52.202;9.876;2023-05-07T03:29:03;9.30;99.90
13673;DHT22;6909;52.202;9.876;2023-05-07T03:31:29;9.30;99.90
13673;DHT22;6909;52.202;9.876;2023-05-07T03:33:57;9.20;99.90
13673;DHT22;6909;52.202;9.876;2023-05-07T03:36:24;9.20;99.90
13673;DHT22;6909;52.202;9.876;2023-05-07T03:38:51;9.30;99.90
13673;DHT22;6909;52.202;9.876;2023-05-07T03:41:19;9.20;99.90
13673;DHT22;6909;52.202;9.876;2023-05-07T03:43:46;9.30;99.90
13673;DHT22;6909;52.202;9.876;2023-05-07T03:46:13;9.20;99.90
13673;DHT22;6909;52.202;9.876;2023-05-07T03:48:39;9.20;99.90
13673;DHT22;6909;52.202;9.876;2023-05-07T03:51:06;9.20;99.90
13673;DHT22;6909;52.202;9.876;2023-05-07T03:53:33;9.20;99.90
13673;DHT22;6909;52.202;9.876;2023-05-07T03:55:59;9.20;99.90
13673;DHT22;6909;52.202;9.876;2023-05-07T03:58:27;9.20;99.90
13673;DHT22;6909;52.202;9.876;2023-05-07T04:00:54;9.20;99.90
13673;DHT22;6909;52.202;9.876;2023-05-07T04:03:20;9.20;99.90
13673;DHT22;6909;52.202;9.876;2023-05-07T04:05:47;9.20;99.90
13673;DHT22;6909;52.202;9.876;2023-05-07T04:08:14;9.20;99.90
13673;DHT22;6909;52.202;9.876;2023-05-07T04:10:40;9.10;99.90
13673;DHT22;6909;52.202;9.876;2023-05-07T04:13:07;9.10;99.90
13673;DHT22;6909;52.202;9.876;2023-05-07T04:15:35;9.10;99.90
13673;DHT22;6909;52.202;9.876;2023-05-07T04:18:02;9.10;99.90
13673;DHT22;6909;52.202;9.876;2023-05-07T04:20:28;9.10;99.90
13673;DHT22;6909;52.202;9.876;2023-05-07T04:22:55;9.10;99.90
13673;DHT22;6909;52.202;9.876;2023-05-07T04:25:22;9.10;99.90
13673;DHT22;6909;52.202;9.876;2023-05-07T04:27:52;9.10;99.90
13673;DHT22;6909;52.202;9.876;2023-05-07T04:30:18;9.10;99.90
13673;DHT22;6909;52.202;9.876;2023-05-07T04:32:46;9.10;99.90
13673;DHT22;6909;52.202;9.876;2023-05-07T04:35:13;9.10;99.90
13673;DHT22;6909;52.202;9.876;2023-05-07T04:37:40;9.20;99.90
13673;DHT22;6909;52.202;9.876;2023-05-07T04:40:07;9.20;99.90
13673;DHT22;6909;52.202;9.876;2023-05-07T04:42:35;9.20;99.90
13673;DHT22;6909;52.202;9.876;2023-05-07T04:45:02;9.10;99.90
13673;DHT22;6909;52.202;9.876;2023-05-07T04:47:30;9.20;99.90
13673;DHT22;6909;52.202;9.876;2023-05-07T04:49:58;9.20;99.90
13673;DHT22;6909;52.202;9.876;2023-05-07T04:52:25;9.10;99.90
13673;DHT22;6909;52.202;9.876;2023-05-07T04:54:52;9.20;99.90
13673;DHT22;6909;52.202;9.876;2023-05-07T04:57:18;9.20;99.90
13673;DHT22;6909;52.202;9.876;2023-05-07T04:59:45;9.20;99.90
13673;DHT22;6909;52.202;9.876;2023-05-07T05:02:11;9.20;99.90
13673;DHT22;6909;52.202;9.876;2023-05-07T05:04:38;9.20;99.90
13673;DHT22;6909;52.202;9.876;2023-05-07T05:07:06;9.20;99.90
13673;DHT22;6909;52.202;9.876;2023-05-07T05:09:33;9.20;99.90
13673;DHT22;6909;52.202;9.876;2023-05-07T05:11:59;9.20;99.90
13673;DHT22;6909;52.202;9.876;2023-05-07T05:14:26;9.20;99.90
13673;DHT22;6909;52.202;9.876;2023-05-07T05:16:53;9.30;99.90
13673;DHT22;6909;52.202;9.876;2023-05-07T05:19:19;9.30;99.90
13673;DHT22;6909;52.202;9.876;2023-05-07T05:21:46;9.30;99.90
13673;DHT22;6909;52.202;9.876;2023-05-07T05:24:14;9.40;99.90
13673;DHT22;6909;52.202;9.876;2023-05-07T05:26:40;9.30;99.90
13673;DHT22;6909;52.202;9.876;2023-05-07T05:29:07;9.30;99.90
13673;DHT22;6909;52.202;9.876;2023-05-07T05:31:34;9.30;99.90
13673;DHT22;6909;52.202;9.876;2023-05-07T05:34:00;9.20;99.90
13673;DHT22;6909;52.202;9.876;2023-05-07T05:36:27;9.30;99.90
13673;DHT22;6909;52.202;9.876;2023-05-07T05:38:53;9.30;99.90
13673;DHT22;6909;52.202;9.876;2023-05-07T05:41:21;9.30;99.90
13673;DHT22;6909;52.202;9.876;2023-05-07T05:43:48;9.30;99.90
13673;DHT22;6909;52.202;9.876;2023-05-07T05:46:15;9.30;99.90
13673;DHT22;6909;52.202;9.876;2023-05-07T05:48:41;9.30;99.90
13673;DHT22;6909;52.202;9.876;2023-05-07T05:51:08;9.40;99.90
13673;DHT22;6909;52.202;9.876;2023-05-07T05:53:35;9.30;99.90
13673;DHT22;6909;52.202;9.876;2023-05-07T05:56:02;9.30;99.90
13673;DHT22;6909;52.202;9.876;2023-05-07T05:58:30;9.30;99.90
13673;DHT22;6909;52.202;9.876;2023-05-07T06:00:57;9.30;99.90
13673;DHT22;6909;52.202;9.876;2023-05-07T06:03:24;9.30;99.90
13673;DHT22;6909;52.202;9.876;2023-05-07T06:05:51;9.50;99.90
13673;DHT22;6909;52.202;9.876;2023-05-07T06:08:18;9.50;99.90
13673;DHT22;6909;52.202;9.876;2023-05-07T06:10:45;9.50;99.90
13673;DHT22;6909;52.202;9.876;2023-05-07T06:13:11;9.60;99.90
13673;DHT22;6909;52.202;9.876;2023-05-07T06:15:39;9.60;99.90
13673;DHT22;6909;52.202;9.876;2023-05-07T06:18:06;9.70;99.90
13673;DHT22;6909;52.202;9.876;2023-05-07T06:20:33;9.80;99.90
13673;DHT22;6909;52.202;9.876;2023-05-07T06:22:59;9.70;99.90
13673;DHT22;6909;52.202;9.876;2023-05-07T06:25:26;9.70;99.90
13673;DHT22;6909;52.202;9.876;2023-05-07T06:27:52;9.80;99.90
13673;DHT22;6909;52.202;9.876;2023-05-07T06:30:19;9.90;99.90
13673;DHT22;6909;52.202;9.876;2023-05-07T06:32:47;9.90;99.90
13673;DHT22;6909;52.202;9.876;2023-05-07T06:35:14;9.90;99.90
13673;DHT22;6909;52.202;9.876;2023-05-07T06:37:41;10.00;99.90
13673;DHT22;6909;52.202;9.876;2023-05-07T06:40:10;10.10;99.90
13673;DHT22;6909;52.202;9.876;2023-05-07T06:42:37;10.10;99.90
13673;DHT22;6909;52.202;9.876;2023-05-07T06:45:04;10.10;99.90
13673;DHT22;6909;52.202;9.876;2023-05-07T06:47:31;10.20;99.90
13673;DHT22;6909;52.202;9.876;2023-05-07T06:49:59;10.50;99.90
13673;DHT22;6909;52.202;9.876;2023-05-07T06:52:25;10.60;99.90
13673;DHT22;6909;52.202;9.876;2023-05-07T06:54:52;10.40;99.90
13673;DHT22;6909;52.202;9.876;2023-05-07T06:57:18;10.30;99.90
13673;DHT22;6909;52.202;9.876;2023-05-07T06:59:45;10.40;99.90
13673;DHT22;6909;52.202;9.876;2023-05-07T07:02:12;10.40;99.90
13673;DHT22;6909;52.202;9.876;2023-05-07T07:04:38;10.40;99.90
13673;DHT22;6909;52.202;9.876;2023-05-07T07:07:06;10.50;99.90
13673;DHT22;6909;52.202;9.876;2023-05-07T07:09:33;10.50;99.90
13673;DHT22;6909;52.202;9.876;2023-05-07T07:12:00;10.50;99.90
13673;DHT22;6909;52.202;9.876;2023-05-07T07:14:26;10.50;99.90
13673;DHT22;6909;52.202;9.876;2023-05-07T07:16:53;10.70;99.90
13673;DHT22;6909;52.202;9.876;2023-05-07T07:19:19;10.60;99.90
13673;DHT22;6909;52.202;9.876;2023-05-07T07:21:46;10.70;99.90
13673;DHT22;6909;52.202;9.876;2023-05-07T07:24:15;10.90;99.90
13673;DHT22;6909;52.202;9.876;2023-05-07T07:26:44;11.20;99.90
13673;DHT22;6909;52.202;9.876;2023-05-07T07:29:11;11.30;99.90
13673;DHT22;6909;52.202;9.876;2023-05-07T07:31:37;11.80;99.90
13673;DHT22;6909;52.202;9.876;2023-05-07T07:34:04;11.80;99.90
13673;DHT22;6909;52.202;9.876;2023-05-07T07:36:30;11.80;99.90
13673;DHT22;6909;52.202;9.876;2023-05-07T07:38:57;11.80;99.90
13673;DHT22;6909;52.202;9.876;2023-05-07T07:41:25;12.40;99.90
13673;DHT22;6909;52.202;9.876;2023-05-07T07:43:52;12.80;99.90
13673;DHT22;6909;52.202;9.876;2023-05-07T07:46:18;13.00;99.90
13673;DHT22;6909;52.202;9.876;2023-05-07T07:48:45;12.90;99.90
13673;DHT22;6909;52.202;9.876;2023-05-07T07:51:11;12.30;99.90
13673;DHT22;6909;52.202;9.876;2023-05-07T07:53:38;12.10;99.90
13673;DHT22;6909;52.202;9.876;2023-05-07T07:56:05;12.10;99.90
13673;DHT22;6909;52.202;9.876;2023-05-07T07:58:33;11.90;99.90
13673;DHT22;6909;52.202;9.876;2023-05-07T08:01:01;11.70;99.90
13673;DHT22;6909;52.202;9.876;2023-05-07T08:03:27;11.70;99.90
13673;DHT22;6909;52.202;9.876;2023-05-07T08:05:57;11.60;99.90
13673;DHT22;6909;52.202;9.876;2023-05-07T08:08:23;11.60;99.90
13673;DHT22;6909;52.202;9.876;2023-05-07T08:10:50;11.70;99.90
13673;DHT22;6909;52.202;9.876;2023-05-07T08:13:17;11.40;99.90
13673;DHT22;6909;52.202;9.876;2023-05-07T08:15:45;11.30;99.90
13673;DHT22;6909;52.202;9.876;2023-05-07T08:18:12;11.20;99.90
13673;DHT22;6909;52.202;9.876;2023-05-07T08:20:38;11.20;99.90
13673;DHT22;6909;52.202;9.876;2023-05-07T08:23:06;11.30;99.90
13673;DHT22;6909;52.202;9.876;2023-05-07T08:25:33;11.30;99.90
13673;DHT22;6909;52.202;9.876;2023-05-07T08:28:00;11.40;99.90
13673;DHT22;6909;52.202;9.876;2023-05-07T08:30:26;11.40;99.90
13673;DHT22;6909;52.202;9.876;2023-05-07T08:32:54;11.50;99.90
13673;DHT22;6909;52.202;9.876;2023-05-07T08:35:21;11.50;99.90
13673;DHT22;6909;52.202;9.876;2023-05-07T08:37:48;11.60;99.90
13673;DHT22;6909;52.202;9.876;2023-05-07T08:40:14;11.60;99.90
13673;DHT22;6909;52.202;9.876;2023-05-07T08:42:42;11.60;99.90
13673;DHT22;6909;52.202;9.876;2023-05-07T08:45:10;11.70;95.70
13673;DHT22;6909;52.202;9.876;2023-05-07T08:47:42;11.60;9.90
13673;DHT22;6909;52.202;9.876;2023-05-07T08:50:11;11.60;1.00
13673;DHT22;6909;52.202;9.876;2023-05-07T08:52:39;11.50;1.00
13673;DHT22;6909;52.202;9.876;2023-05-07T08:55:07;11.30;1.00
13673;DHT22;6909;52.202;9.876;2023-05-07T08:57:33;11.30;1.00
13673;DHT22;6909;52.202;9.876;2023-05-07T09:00:00;11.50;1.00
13673;DHT22;6909;52.202;9.876;2023-05-07T09:02:28;11.60;1.00
13673;DHT22;6909;52.202;9.876;2023-05-07T09:04:55;11.60;1.00
13673;DHT22;6909;52.202;9.876;2023-05-07T09:07:23;11.80;1.00
13673;DHT22;6909;52.202;9.876;2023-05-07T09:09:50;12.00;99.90
13673;DHT22;6909;52.202;9.876;2023-05-07T09:12:17;12.10;1.00
13673;DHT22;6909;52.202;9.876;2023-05-07T09:14:44;12.10;99.90
13673;DHT22;6909;52.202;9.876;2023-05-07T09:17:11;12.10;1.00
13673;DHT22;6909;52.202;9.876;2023-05-07T09:19:38;11.90;1.00
13673;DHT22;6909;52.202;9.876;2023-05-07T09:22:05;12.00;1.00
13673;DHT22;6909;52.202;9.876;2023-05-07T09:24:34;11.70;1.00
13673;DHT22;6909;52.202;9.876;2023-05-07T09:27:03;11.70;1.00
13673;DHT22;6909;52.202;9.876;2023-05-07T09:29:30;11.80;1.00
13673;DHT22;6909;52.202;9.876;2023-05-07T09:32:00;12.00;99.90
13673;DHT22;6909;52.202;9.876;2023-05-07T09:34:28;11.90;1.00
13673;DHT22;6909;52.202;9.876;2023-05-07T09:36:54;11.90;92.50
13673;DHT22;6909;52.202;9.876;2023-05-07T09:39:22;11.80;99.90
13673;DHT22;6909;52.202;9.876;2023-05-07T09:41:50;11.80;1.00
13673;DHT22;6909;52.202;9.876;2023-05-07T09:44:20;11.90;1.00
13673;DHT22;6909;52.202;9.876;2023-05-07T09:46:49;12.00;1.00
13673;DHT22;6909;52.202;9.876;2023-05-07T09:49:20;11.90;1.00
13673;DHT22;6909;52.202;9.876;2023-05-07T09:51:49;12.00;1.00
13673;DHT22;6909;52.202;9.876;2023-05-07T09:54:16;12.10;99.90
13673;DHT22;6909;52.202;9.876;2023-05-07T09:56:44;11.80;1.00
13673;DHT22;6909;52.202;9.876;2023-05-07T09:59:13;11.90;1.00
13673;DHT22;6909;52.202;9.876;2023-05-07T10:01:41;11.80;1.00
13673;DHT22;6909;52.202;9.876;2023-05-07T10:04:08;11.80;99.90
13673;DHT22;6909;52.202;9.876;2023-05-07T10:06:36;11.90;1.00
13673;DHT22;6909;52.202;9.876;2023-05-07T10:09:03;12.10;99.90
13673;DHT22;6909;52.202;9.876;2023-05-07T10:11:32;12.20;90.70
13673;DHT22;6909;52.202;9.876;2023-05-07T10:13:58;12.40;1.00
13673;DHT22;6909;52.202;9.876;2023-05-07T10:16:29;12.30;1.00
13673;DHT22;6909;52.202;9.876;2023-05-07T10:18:58;12.20;1.00
13673;DHT22;6909;52.202;9.876;2023-05-07T10:21:27;12.00;1.00
13673;DHT22;6909;52.202;9.876;2023-05-07T10:23:58;12.20;1.00
13673;DHT22;6909;52.202;9.876;2023-05-07T10:26:27;12.00;99.90
13673;DHT22;6909;52.202;9.876;2023-05-07T10:28:57;12.10;1.00
13673;DHT22;6909;52.202;9.876;2023-05-07T10:31:41;12.20;1.00
13673;DHT22;6909;52.202;9.876;2023-05-07T10:34:12;12.00;99.90
13673;DHT22;6909;52.202;9.876;2023-05-07T10:36:40;12.30;1.00
13673;DHT22;6909;52.202;9.876;2023-05-07T10:39:07;12.50;1.00
13673;DHT22;6909;52.202;9.876;2023-05-07T10:41:35;12.50;99.90
13673;DHT22;6909;52.202;9.876;2023-05-07T10:44:02;12.40;1.00
13673;DHT22;6909;52.202;9.876;2023-05-07T10:46:30;12.60;55.90
13673;DHT22;6909;52.202;9.876;2023-05-07T10:49:07;12.80;99.90
13673;DHT22;6909;52.202;9.876;2023-05-07T10:51:34;12.80;1.00
13673;DHT22;6909;52.202;9.876;2023-05-07T10:54:21;12.90;99.90
13673;DHT22;6909;52.202;9.876;2023-05-07T10:56:49;12.80;1.00
13673;DHT22;6909;52.202;9.876;2023-05-07T10:59:31;13.00;1.00
13673;DHT22;6909;52.202;9.876;2023-05-07T11:02:01;12.80;51.00
13673;DHT22;6909;52.202;9.876;2023-05-07T11:04:29;13.10;88.60
13673;DHT22;6909;52.202;9.876;2023-05-07T11:07:27;12.80;1.00
13673;DHT22;6909;52.202;9.876;2023-05-07T11:09:58;13.00;1.00
13673;DHT22;6909;52.202;9.876;2023-05-07T11:12:52;13.00;1.00
13673;DHT22;6909;52.202;9.876;2023-05-07T11:15:39;13.10;1.00
13673;DHT22;6909;52.202;9.876;2023-05-07T11:18:09;12.90;99.90
13673;DHT22;6909;52.202;9.876;2023-05-07T11:20:49;12.60;99.90
13673;DHT22;6909;52.202;9.876;2023-05-07T11:26:46;12.70;99.90
13673;DHT22;6909;52.202;9.876;2023-05-07T11:29:15;13.10;99.90
13673;DHT22;6909;52.202;9.876;2023-05-07T11:31:42;13.10;99.90
13673;DHT22;6909;52.202;9.876;2023-05-07T11:34:11;12.90;21.60
13673;DHT22;6909;52.202;9.876;2023-05-07T11:36:42;12.90;1.00
13673;DHT22;6909;52.202;9.876;2023-05-07T11:39:26;12.80;1.00
13673;DHT22;6909;52.202;9.876;2023-05-07T11:41:53;12.80;1.00
13673;DHT22;6909;52.202;9.876;2023-05-07T11:44:20;12.90;1.00
13673;DHT22;6909;52.202;9.876;2023-05-07T11:46:47;12.70;1.00
13673;DHT22;6909;52.202;9.876;2023-05-07T11:49:17;12.70;1.00
13673;DHT22;6909;52.202;9.876;2023-05-07T11:51:43;12.80;99.90
13673;DHT22;6909;52.202;9.876;2023-05-07T11:54:11;13.10;1.00
13673;DHT22;6909;52.202;9.876;2023-05-07T11:56:41;13.10;99.90
13673;DHT22;6909;52.202;9.876;2023-05-07T11:59:08;13.40;1.00
13673;DHT22;6909;52.202;9.876;2023-05-07T12:01:35;13.20;96.00
13673;DHT22;6909;52.202;9.876;2023-05-07T12:04:03;13.30;56.20
13673;DHT22;6909;52.202;9.876;2023-05-07T12:06:36;13.50;31.10
13673;DHT22;6909;52.202;9.876;2023-05-07T12:09:02;13.50;14.20
13673;DHT22;6909;52.202;9.876;2023-05-07T12:11:30;13.40;1.00
13673;DHT22;6909;52.202;9.876;2023-05-07T12:13:56;13.30;1.00
13673;DHT22;6909;52.202;9.876;2023-05-07T12:16:23;13.40;1.00
13673;DHT22;6909;52.202;9.876;2023-05-07T12:18:50;13.40;1.00
13673;DHT22;6909;52.202;9.876;2023-05-07T12:21:18;13.60;1.00
13673;DHT22;6909;52.202;9.876;2023-05-07T12:23:46;13.40;1.00
13673;DHT22;6909;52.202;9.876;2023-05-07T12:26:13;13.60;1.00
13673;DHT22;6909;52.202;9.876;2023-05-07T12:28:41;13.60;1.00
13673;DHT22;6909;52.202;9.876;2023-05-07T12:31:07;13.50;99.90
13673;DHT22;6909;52.202;9.876;2023-05-07T12:33:34;13.50;99.90
13673;DHT22;6909;52.202;9.876;2023-05-07T12:36:05;13.70;99.90
13673;DHT22;6909;52.202;9.876;2023-05-07T12:38:35;13.60;99.90
13673;DHT22;6909;52.202;9.876;2023-05-07T12:41:04;13.60;99.90
13673;DHT22;6909;52.202;9.876;2023-05-07T12:43:31;13.80;99.90
13673;DHT22;6909;52.202;9.876;2023-05-07T12:46:00;13.90;99.90
13673;DHT22;6909;52.202;9.876;2023-05-07T12:48:27;13.60;27.00
13673;DHT22;6909;52.202;9.876;2023-05-07T12:50:54;13.50;1.00
13673;DHT22;6909;52.202;9.876;2023-05-07T12:53:23;13.60;1.00
13673;DHT22;6909;52.202;9.876;2023-05-07T12:55:51;13.80;1.00
13673;DHT22;6909;52.202;9.876;2023-05-07T12:58:20;13.80;1.00
13673;DHT22;6909;52.202;9.876;2023-05-07T13:00:49;13.80;1.00
13673;DHT22;6909;52.202;9.876;2023-05-07T13:03:23;13.70;1.00
13673;DHT22;6909;52.202;9.876;2023-05-07T13:05:51;14.10;1.00
13673;DHT22;6909;52.202;9.876;2023-05-07T13:08:28;13.90;1.00
13673;DHT22;6909;52.202;9.876;2023-05-07T13:10:55;13.90;1.00
13673;DHT22;6909;52.202;9.876;2023-05-07T13:13:23;13.80;1.00
13673;DHT22;6909;52.202;9.876;2023-05-07T13:15:50;13.90;1.00
13673;DHT22;6909;52.202;9.876;2023-05-07T13:18:17;13.70;1.00
13673;DHT22;6909;52.202;9.876;2023-05-07T13:20:44;13.70;1.00
13673;DHT22;6909;52.202;9.876;2023-05-07T13:23:10;13.90;99.90
13673;DHT22;6909;52.202;9.876;2023-05-07T13:25:37;14.00;1.00
13673;DHT22;6909;52.202;9.876;2023-05-07T13:28:04;14.10;99.90
13673;DHT22;6909;52.202;9.876;2023-05-07T13:30:32;14.10;99.90
13673;DHT22;6909;52.202;9.876;2023-05-07T13:32:58;13.70;99.90
13673;DHT22;6909;52.202;9.876;2023-05-07T13:35:25;13.90;99.90
13673;DHT22;6909;52.202;9.876;2023-05-07T13:37:52;13.80;99.90
13673;DHT22;6909;52.202;9.876;2023-05-07T13:40:20;13.70;18.50
13673;DHT22;6909;52.202;9.876;2023-05-07T13:42:46;13.50;55.40
13673;DHT22;6909;52.202;9.876;2023-05-07T13:45:13;13.90;94.90
13673;DHT22;6909;52.202;9.876;2023-05-07T13:47:41;14.10;93.20
13673;DHT22;6909;52.202;9.876;2023-05-07T13:50:09;14.00;1.00
13673;DHT22;6909;52.202;9.876;2023-05-07T13:52:36;14.10;1.00
13673;DHT22;6909;52.202;9.876;2023-05-07T13:55:04;13.80;1.00
13673;DHT22;6909;52.202;9.876;2023-05-07T13:57:31;13.70;1.00
13673;DHT22;6909;52.202;9.876;2023-05-07T13:59:57;13.80;1.00
13673;DHT22;6909;52.202;9.876;2023-05-07T14:02:24;13.70;1.00
13673;DHT22;6909;52.202;9.876;2023-05-07T14:04:52;13.60;1.00
13673;DHT22;6909;52.202;9.876;2023-05-07T14:07:18;13.60;1.00
13673;DHT22;6909;52.202;9.876;2023-05-07T14:09:45;13.80;1.00
13673;DHT22;6909;52.202;9.876;2023-05-07T14:12:11;13.70;1.00
13673;DHT22;6909;52.202;9.876;2023-05-07T14:14:38;13.80;1.00
13673;DHT22;6909;52.202;9.876;2023-05-07T14:17:05;13.80;1.00
13673;DHT22;6909;52.202;9.876;2023-05-07T14:19:31;13.80;1.00
13673;DHT22;6909;52.202;9.876;2023-05-07T14:22:00;13.90;1.00
13673;DHT22;6909;52.202;9.876;2023-05-07T14:24:27;14.00;1.00
13673;DHT22;6909;52.202;9.876;2023-05-07T14:26:54;14.10;1.00
13673;DHT22;6909;52.202;9.876;2023-05-07T14:29:21;14.20;1.00
13673;DHT22;6909;52.202;9.876;2023-05-07T14:31:48;14.40;1.00
13673;DHT22;6909;52.202;9.876;2023-05-07T14:34:14;14.00;1.00
13673;DHT22;6909;52.202;9.876;2023-05-07T14:36:41;14.20;1.00
13673;DHT22;6909;52.202;9.876;2023-05-07T14:39:10;14.30;1.00
13673;DHT22;6909;52.202;9.876;2023-05-07T14:41:37;14.40;1.00
13673;DHT22;6909;52.202;9.876;2023-05-07T14:44:04;14.50;1.00
13673;DHT22;6909;52.202;9.876;2023-05-07T14:46:30;14.50;1.00
13673;DHT22;6909;52.202;9.876;2023-05-07T14:48:57;14.50;1.00
13673;DHT22;6909;52.202;9.876;2023-05-07T14:51:23;14.30;1.00
13673;DHT22;6909;52.202;9.876;2023-05-07T14:53:51;14.20;99.90
13673;DHT22;6909;52.202;9.876;2023-05-07T14:56:19;13.70;1.00
13673;DHT22;6909;52.202;9.876;2023-05-07T14:58:46;13.60;99.90
13673;DHT22;6909;52.202;9.876;2023-05-07T15:01:13;13.80;1.00
13673;DHT22;6909;52.202;9.876;2023-05-07T15:03:40;13.80;99.90
13673;DHT22;6909;52.202;9.876;2023-05-07T15:06:07;14.00;1.00
13673;DHT22;6909;52.202;9.876;2023-05-07T15:08:33;14.00;1.00
13673;DHT22;6909;52.202;9.876;2023-05-07T15:11:00;13.80;99.90
13673;DHT22;6909;52.202;9.876;2023-05-07T15:13:28;13.80;99.90
13673;DHT22;6909;52.202;9.876;2023-05-07T15:15:54;13.50;99.90
13673;DHT22;6909;52.202;9.876;2023-05-07T15:18:21;13.40;99.90
13673;DHT22;6909;52.202;9.876;2023-05-07T15:20:48;13.60;99.90
13673;DHT22;6909;52.202;9.876;2023-05-07T15:23:14;13.60;99.90
13673;DHT22;6909;52.202;9.876;2023-05-07T15:25:41;13.60;99.90
13673;DHT22;6909;52.202;9.876;2023-05-07T15:28:08;13.60;99.90
13673;DHT22;6909;52.202;9.876;2023-05-07T15:30:36;13.40;99.90
13673;DHT22;6909;52.202;9.876;2023-05-07T15:33:02;13.60;99.90
13673;DHT22;6909;52.202;9.876;2023-05-07T15:35:29;13.70;99.90
13673;DHT22;6909;52.202;9.876;2023-05-07T15:37:56;13.60;99.90
13673;DHT22;6909;52.202;9.876;2023-05-07T15:40:23;13.70;99.90
13673;DHT22;6909;52.202;9.876;2023-05-07T15:42:49;13.60;99.90
13673;DHT22;6909;52.202;9.876;2023-05-07T15:45:20;13.60;99.90
13673;DHT22;6909;52.202;9.876;2023-05-07T15:47:48;13.60;91.80
13673;DHT22;6909;52.202;9.876;2023-05-07T15:50:14;13.70;72.20
13673;DHT22;6909;52.202;9.876;2023-05-07T15:52:41;13.70;14.60
13673;DHT22;6909;52.202;9.876;2023-05-07T15:55:10;13.60;7.60
13673;DHT22;6909;52.202;9.876;2023-05-07T15:57:36;13.50;1.00
13673;DHT22;6909;52.202;9.876;2023-05-07T16:00:04;13.40;1.00
13673;DHT22;6909;52.202;9.876;2023-05-07T16:02:33;13.50;15.00